Hauptseite
METAR-TAF:

METAR-TAF

Flughäfen :

Bohrplattform

A12-cpp, Niederlande

Breite: 55-23-57N, Länge: 3-48-37E, Höhe: 33 m

Beobachtung

Neuester Wetterbericht von vor 17 Minuten, um 08:25 UTC
Wind 15 kt aus Nordost
Temperatur 7°C
Luftfeuchtigkeit 81%
Luftdruck 1028 hPa
Sichtweite 10 km oder mehr

METAR: EHAK 090825Z AUTO 05015KT 9999 FEW018/// 07/04 Q1028

Zeit: 10:42 (08:42 UTC)


TAF: fehlend

Wetterbeobachtungen und Prognosen von mehr als 4000 Flughäfen (METAR und TAF Bericht).

Die verfügbaren Stationen werden durch gelbe und rote Markierungen auf der Karte dargestellt.

Führen Sie die Maus auf sie, um den Namen der Station zu sehen.

Darauf klicken, um die Beobachtung von Wetterbeobachtungen und Prognosen zu sehen.

Um die Karte zu ändern : klicken Sie auf den grünen Tasten mit einem schwarzen Kreuz Zum Vergrößern, auf den grünen Button mit einem Gedankenstrich zu verkleinern, oder auf die grünen Pfeile für benachbarte Karten.


METAR-TAF: